Time;durP1;ratioP1;P1;durP2;ratioP2;P2;SDS_P1;SDS_P2;PMS_P1;PMS_P2;Temp;Humidity;BMP_temperature;BMP_pressure;BME280_temperature;BME280_humidity;BME280_pressure;Samples;Min_cycle;Max_cycle;Signal;HPM_P1;HPM_P2
2023/06/28 00:01:30;;;;;;;6.60;2.40;;;;;;;13.90;100.00;100071.18;178950;1255;46112;-88
2023/06/28 00:05:33;;;;;;;7.40;2.90;;;;;;;13.86;100.00;100070.06;178838;1253;45903;-90
2023/06/28 00:09:35;;;;;;;1.90;1.50;;;;;;;13.79;100.00;100069.21;179191;1254;57925;-89
2023/06/28 00:13:37;;;;;;;3.60;2.30;;;;;;;13.74;100.00;100068.80;179082;1254;46098;-89
2023/06/28 00:17:43;;;;;;;5.30;2.60;;;;;;;13.70;100.00;100065.19;178786;1253;44871;-90
2023/06/28 00:21:46;;;;;;;6.00;2.20;;;;;;;13.68;100.00;100059.03;179943;1254;44702;-88
2023/06/28 00:25:49;;;;;;;6.50;2.30;;;;;;;13.66;100.00;100058.70;179202;1257;45931;-90
2023/06/28 00:29:52;;;;;;;4.60;1.70;;;;;;;13.66;100.00;100053.20;179589;1253;58234;-90
2023/06/28 00:33:55;;;;;;;6.50;2.90;;;;;;;13.63;100.00;100050.09;179382;1256;46125;-90
2023/06/28 00:37:58;;;;;;;6.30;2.50;;;;;;;13.58;100.00;100051.85;179405;1253;46105;-91
2023/06/28 00:42:02;;;;;;;5.10;2.20;;;;;;;13.58;100.00;100055.55;179610;1253;45998;-89
2023/06/28 00:46:04;;;;;;;6.80;2.90;;;;;;;13.54;100.00;100053.87;178860;1257;46036;-89
2023/06/28 00:50:07;;;;;;;6.50;3.20;;;;;;;13.55;100.00;100048.88;179171;1253;59353;-88
2023/06/28 00:54:09;;;;;;;5.70;3.00;;;;;;;13.56;100.00;100051.10;179288;1253;46112;-90
2023/06/28 00:58:11;;;;;;;8.20;3.60;;;;;;;13.54;100.00;100051.23;179659;1253;45872;-89
2023/06/28 01:02:14;;;;;;;16.60;4.20;;;;;;;13.55;100.00;100056.02;179250;1253;46442;-89
2023/06/28 01:06:19;;;;;;;7.20;2.60;;;;;;;13.54;100.00;100048.59;178779;1254;45974;-90
2023/06/28 01:10:22;;;;;;;9.90;5.20;;;;;;;13.56;100.00;100044.84;178894;1257;59368;-88
2023/06/28 01:14:25;;;;;;;11.40;3.80;;;;;;;13.55;100.00;100046.84;178540;1253;44688;-89
2023/06/28 01:18:28;;;;;;;14.70;4.50;;;;;;;13.53;100.00;100052.23;178166;1254;46072;-88
2023/06/28 01:22:34;;;;;;;8.60;4.20;;;;;;;13.46;100.00;100053.66;178195;1253;46004;-89
2023/06/28 01:26:36;;;;;;;7.30;3.80;;;;;;;13.38;100.00;100057.09;178234;1253;45924;-88
2023/06/28 01:30:39;;;;;;;10.80;4.50;;;;;;;13.13;100.00;100063.23;178027;1254;58074;-89
2023/06/28 01:34:41;;;;;;;5.70;3.80;;;;;;;13.09;100.00;100065.67;178401;1253;46060;-90
2023/06/28 01:38:44;;;;;;;9.20;4.00;;;;;;;13.07;100.00;100066.64;178332;1253;46063;-89
2023/06/28 01:42:47;;;;;;;7.80;3.90;;;;;;;13.04;100.00;100064.05;178593;1253;46084;-89
2023/06/28 01:46:52;;;;;;;8.70;4.00;;;;;;;13.07;100.00;100060.08;178713;1257;46111;-89
2023/06/28 01:50:55;;;;;;;10.90;4.70;;;;;;;13.11;100.00;100056.23;178875;1253;58271;-90
2023/06/28 01:54:58;;;;;;;5.10;3.40;;;;;;;13.11;100.00;100056.06;178675;1253;46150;-89
2023/06/28 01:59:00;;;;;;;8.40;3.90;;;;;;;13.14;100.00;100054.89;178938;1253;46114;-89
2023/06/28 02:03:03;;;;;;;10.40;4.30;;;;;;;13.19;100.00;100051.09;178496;1253;45386;-89
2023/06/28 02:07:06;;;;;;;5.00;2.80;;;;;;;13.24;100.00;100052.19;178574;1254;46033;-89
2023/06/28 02:11:08;;;;;;;11.60;3.50;;;;;;;13.30;100.00;100049.27;178094;1253;59613;-89
2023/06/28 02:15:12;;;;;;;8.80;3.40;;;;;;;13.35;100.00;100050.40;178206;1253;46085;-88
2023/06/28 02:19:15;;;;;;;6.70;2.80;;;;;;;13.37;100.00;100053.94;178107;1254;44726;-88
2023/06/28 02:23:19;;;;;;;5.70;3.00;;;;;;;13.38;100.00;100051.23;178006;1256;46085;-90
2023/06/28 02:27:21;;;;;;;11.50;4.60;;;;;;;13.38;100.00;100053.54;178847;1253;45878;-89
2023/06/28 02:31:24;;;;;;;13.60;5.30;;;;;;;13.39;100.00;100053.45;178831;1253;59552;-90
2023/06/28 02:35:27;;;;;;;6.30;3.80;;;;;;;13.37;100.00;100062.01;178736;1253;45943;-90
2023/06/28 02:39:29;;;;;;;5.00;3.50;;;;;;;13.31;100.00;100060.04;179137;1256;46183;-89
2023/06/28 02:43:32;;;;;;;3.60;2.60;;;;;;;13.24;100.00;100063.56;178442;1253;46098;-87
2023/06/28 02:47:34;;;;;;;5.40;4.00;;;;;;;13.23;100.00;100068.46;178528;1253;46058;-89
2023/06/28 02:51:37;;;;;;;7.80;3.00;;;;;;;13.18;100.00;100071.61;178843;1253;58382;-90
2023/06/28 02:55:43;;;;;;;7.00;3.20;;;;;;;13.18;100.00;100073.56;179211;1253;45939;-89
2023/06/28 02:59:46;;;;;;;6.40;2.90;;;;;;;13.20;100.00;100075.52;178358;1254;46544;-87
2023/06/28 03:03:48;;;;;;;12.00;3.20;;;;;;;13.19;100.00;100079.24;178454;1254;46284;-89
2023/06/28 03:07:50;;;;;;;7.70;3.30;;;;;;;13.18;100.00;100081.05;178217;1253;46042;-89
2023/06/28 03:11:53;;;;;;;6.30;2.00;;;;;;;13.21;100.00;100085.20;178043;1255;57660;-90
2023/06/28 03:15:55;;;;;;;3.10;2.60;;;;;;;13.24;100.00;100083.66;178496;1253;46095;-89
2023/06/28 03:19:58;;;;;;;9.50;2.60;;;;;;;13.28;100.00;100087.55;178030;1254;45953;-87
2023/06/28 03:24:00;;;;;;;7.20;2.80;;;;;;;13.32;100.00;100089.52;178380;1253;46061;-88
2023/06/28 03:28:02;;;;;;;5.20;3.00;;;;;;;13.32;100.00;100088.48;178250;1258;46077;-88
2023/06/28 03:32:05;;;;;;;8.30;3.00;;;;;;;13.36;100.00;100087.42;178119;1254;59603;-89
2023/06/28 03:36:07;;;;;;;4.60;2.40;;;;;;;13.41;100.00;100083.66;178194;1254;46007;-89
2023/06/28 03:40:09;;;;;;;4.60;2.50;;;;;;;13.50;100.00;100083.16;178839;1253;45992;-88
2023/06/28 03:44:13;;;;;;;7.90;2.90;;;;;;;13.70;100.00;100085.50;177742;1253;46089;-89
2023/06/28 03:48:15;;;;;;;4.00;3.00;;;;;;;13.92;100.00;100082.88;178127;1253;46055;-90
2023/06/28 03:52:18;;;;;;;13.70;4.20;;;;;;;14.13;100.00;100080.92;177865;1258;59282;-90
2023/06/28 03:56:21;;;;;;;3.50;2.50;;;;;;;14.38;100.00;100086.53;178973;1254;45900;-89
2023/06/28 04:00:23;;;;;;;3.90;2.20;;;;;;;14.58;100.00;100084.48;178386;1253;46163;-89
2023/06/28 04:04:26;;;;;;;3.90;2.20;;;;;;;14.74;100.00;100087.15;178697;1254;46155;-89
2023/06/28 04:08:29;;;;;;;6.60;2.60;;;;;;;14.90;100.00;100089.33;177752;1253;45980;-88
2023/06/28 04:12:31;;;;;;;6.30;2.90;;;;;;;15.04;100.00;100090.73;177923;1254;60512;-89
2023/06/28 04:16:34;;;;;;;4.10;2.60;;;;;;;15.27;100.00;100088.92;177521;1254;45933;-85
2023/06/28 04:20:36;;;;;;;2.50;2.20;;;;;;;15.52;100.00;100089.14;178170;1253;45934;-89
2023/06/28 04:24:38;;;;;;;4.00;2.60;;;;;;;15.56;100.00;100087.95;177805;1253;46045;-89
2023/06/28 04:28:40;;;;;;;3.80;1.50;;;;;;;15.75;100.00;100088.10;178199;1258;44931;-89
2023/06/28 04:32:49;;;;;;;4.00;2.30;;;;;;;15.93;100.00;100094.46;178253;1256;58805;-87
2023/06/28 04:36:52;;;;;;;3.20;2.30;;;;;;;16.27;100.00;100096.55;177766;1256;46009;-87
2023/06/28 04:41:12;;;;;;;5.50;2.40;;;;;;;17.39;100.00;100090.04;177774;1255;46215;-87
2023/06/28 04:45:14;;;;;;;7.20;2.40;;;;;;;18.27;99.60;100089.36;179025;1256;44693;-88
2023/06/28 04:49:16;;;;;;;5.40;2.20;;;;;;;18.52;96.74;100088.84;178070;1256;45981;-87
2023/06/28 04:53:18;;;;;;;11.70;2.50;;;;;;;19.07;95.83;100081.19;177944;1256;59350;-88
2023/06/28 04:57:21;;;;;;;5.80;2.40;;;;;;;19.78;91.51;100078.90;178139;1256;46039;-88
2023/06/28 05:01:24;;;;;;;5.10;2.00;;;;;;;20.24;85.68;100086.89;177919;1258;45869;-88
2023/06/28 05:05:33;;;;;;;5.10;2.20;;;;;;;20.19;84.98;100090.20;178676;1257;45839;-86
2023/06/28 05:09:39;;;;;;;4.30;2.20;;;;;;;19.96;85.36;100088.77;178885;1260;45999;-88
2023/06/28 05:13:43;;;;;;;7.80;1.80;;;;;;;19.95;85.18;100082.61;179016;1258;60297;-87
2023/06/28 05:17:45;;;;;;;5.10;2.10;;;;;;;19.52;85.34;100078.99;178733;1259;44617;-89
2023/06/28 05:21:49;;;;;;;2.90;1.70;;;;;;;19.29;86.58;100071.36;178721;1258;45994;-88
2023/06/28 05:25:51;;;;;;;3.50;2.00;;;;;;;19.31;87.79;100075.30;178729;1261;46094;-88
2023/06/28 05:29:54;;;;;;;8.00;1.80;;;;;;;19.53;87.93;100072.95;178585;1258;45998;-88
2023/06/28 05:33:59;;;;;;;4.20;2.10;;;;;;;19.47;86.51;100073.48;178599;1259;58313;-88
2023/06/28 05:38:21;;;;;;;3.90;1.30;;;;;;;19.24;87.75;100072.92;178569;1259;49483;-89
2023/06/28 05:42:24;;;;;;;5.10;2.00;;;;;;;19.30;86.69;100064.95;178454;1258;46022;-89
2023/06/28 05:46:28;;;;;;;12.10;2.30;;;;;;;19.23;85.54;100059.52;178413;1262;46260;-89
2023/06/28 05:50:31;;;;;;;4.20;2.50;;;;;;;19.39;89.00;100060.16;179194;1259;45981;-89
2023/06/28 05:54:36;;;;;;;8.20;2.30;;;;;;;19.67;85.53;100056.63;178589;1259;60674;-89
2023/06/28 05:58:39;;;;;;;4.20;2.30;;;;;;;19.45;85.83;100063.61;178760;1259;46038;-89
2023/06/28 06:02:42;;;;;;;7.90;2.10;;;;;;;19.43;85.77;100055.48;177982;1259;46099;-89
2023/06/28 06:06:46;;;;;;;7.20;2.10;;;;;;;19.50;83.92;100061.33;178157;1257;46373;-89
2023/06/28 06:10:51;;;;;;;5.20;1.90;;;;;;;19.43;85.71;100063.37;178897;1259;45974;-89
2023/06/28 06:14:57;;;;;;;4.40;2.30;;;;;;;19.21;86.49;100073.39;178528;1261;60789;-89
2023/06/28 06:19:00;;;;;;;6.30;1.60;;;;;;;19.21;85.95;100075.29;178517;1259;46047;-89
2023/06/28 06:23:04;;;;;;;3.10;1.80;;;;;;;18.90;86.31;100074.33;178110;1259;48236;-89
2023/06/28 06:27:08;;;;;;;6.20;2.10;;;;;;;18.68;87.60;100078.69;178395;1261;46069;-88
2023/06/28 06:31:13;;;;;;;7.60;2.20;;;;;;;18.38;90.06;100089.16;178168;1262;46963;-89
2023/06/28 06:35:16;;;;;;;5.90;2.50;;;;;;;18.17;89.43;100092.00;178353;1259;58224;-88
2023/06/28 06:39:23;;;;;;;7.40;1.50;;;;;;;18.33;90.66;100088.75;178316;1258;46429;-89
2023/06/28 06:43:26;;;;;;;4.70;2.10;;;;;;;18.65;89.78;100087.97;178480;1259;45988;-89
2023/06/28 06:47:29;;;;;;;1.80;1.60;;;;;;;18.84;86.31;100084.27;177956;1259;46030;-88
2023/06/28 06:51:33;;;;;;;4.30;2.00;;;;;;;19.10;82.62;100082.91;178261;1258;46088;-88
2023/06/28 06:55:37;;;;;;;;;;;;;;;19.24;82.68;100082.39;178266;1259;58799;-89
2023/06/28 06:59:39;;;;;;;7.20;2.00;;;;;;;19.15;81.26;100076.87;178299;1259;45999;-87
2023/06/28 07:03:42;;;;;;;4.00;1.40;;;;;;;19.22;79.83;100081.04;178095;1259;46089;-88
2023/06/28 07:07:45;;;;;;;1.20;0.90;;;;;;;19.29;79.44;100081.59;178319;1258;45966;-88
2023/06/28 07:11:47;;;;;;;3.30;1.80;;;;;;;19.07;76.42;100082.13;177981;1259;46016;-88
2023/06/28 07:15:50;;;;;;;3.00;1.70;;;;;;;18.93;76.26;100087.05;178658;1259;57949;-89
2023/06/28 07:19:55;;;;;;;7.00;2.00;;;;;;;19.09;76.81;100081.16;178315;1258;46055;-89
2023/06/28 07:23:58;;;;;;;9.00;1.70;;;;;;;19.02;76.54;100080.05;178089;1259;46095;-90
2023/06/28 07:28:00;;;;;;;2.60;1.00;;;;;;;19.40;78.05;100075.95;178157;1259;46101;-89
2023/06/28 07:32:04;;;;;;;3.20;1.50;;;;;;;19.06;76.35;100081.20;178302;1258;46080;-85
2023/06/28 07:36:06;;;;;;;3.60;1.30;;;;;;;19.04;77.03;100085.92;178103;1257;58040;-85
2023/06/28 07:40:09;;;;;;;8.50;2.70;;;;;;;19.39;75.73;100072.52;177468;1257;46146;-85
2023/06/28 07:44:11;;;;;;;8.40;1.60;;;;;;;19.77;71.91;100069.49;177519;1257;254984;-85
2023/06/28 07:48:13;;;;;;;4.40;1.20;;;;;;;19.61;71.13;100071.58;178261;1256;46098;-86
2023/06/28 07:52:15;;;;;;;1.50;1.30;;;;;;;19.54;73.17;100080.92;178165;1258;46108;-86
2023/06/28 07:56:19;;;;;;;3.10;1.60;;;;;;;19.32;74.20;100078.63;177833;1259;58220;-86
2023/06/28 08:00:22;;;;;;;3.50;1.30;;;;;;;19.11;74.51;100086.57;177984;1257;46198;-86
2023/06/28 08:04:24;;;;;;;6.50;1.90;;;;;;;18.70;75.45;100089.19;177768;1256;46114;-86
2023/06/28 08:08:26;;;;;;;3.00;2.10;;;;;;;18.48;76.69;100091.56;177871;1260;46125;-85
2023/06/28 08:12:28;;;;;;;7.20;2.10;;;;;;;18.44;76.47;100096.19;178004;1257;46063;-86
2023/06/28 08:16:31;;;;;;;2.90;2.30;;;;;;;18.39;78.44;100090.17;177434;1260;59272;-85
2023/06/28 08:20:33;;;;;;;2.90;2.10;;;;;;;18.49;80.17;100096.77;177310;1259;46137;-86
2023/06/28 08:24:35;;;;;;;2.40;1.50;;;;;;;18.36;79.51;100099.52;177446;1256;46066;-86
2023/06/28 08:28:37;;;;;;;4.20;2.20;;;;;;;18.18;80.07;100094.21;177304;1256;46200;-86
2023/06/28 08:32:59;;;;;;;2.70;1.50;;;;;;;17.97;80.19;100102.76;177716;1256;44732;-86
2023/06/28 08:37:03;;;;;;;3.20;1.50;;;;;;;17.74;80.18;100101.63;177500;1259;58232;-85
2023/06/28 08:41:05;;;;;;;3.30;1.50;;;;;;;17.62;81.46;100097.18;177443;1256;46063;-85
2023/06/28 08:45:09;;;;;;;5.10;1.70;;;;;;;17.63;82.24;100095.63;177294;1256;46118;-85
2023/06/28 08:49:12;;;;;;;10.10;1.80;;;;;;;17.57;82.37;100097.59;177587;1256;46220;-85
2023/06/28 08:53:21;;;;;;;3.10;1.50;;;;;;;17.58;82.10;100095.49;177448;1258;46034;-86
2023/06/28 08:57:24;;;;;;;1.60;1.40;;;;;;;17.55;83.16;100097.79;177472;1257;59564;-85
2023/06/28 09:01:26;;;;;;;11.00;3.00;;;;;;;17.50;83.10;100103.04;178039;1256;45892;-86
2023/06/28 09:05:29;;;;;;;5.70;1.80;;;;;;;17.65;83.36;100099.76;177307;1259;46214;-86
2023/06/28 09:09:32;;;;;;;3.40;2.60;;;;;;;17.59;82.88;100093.37;177693;1257;45994;-86
2023/06/28 09:13:35;;;;;;;3.10;1.70;;;;;;;17.66;83.96;100091.71;177366;1256;46085;-86
2023/06/28 09:17:37;;;;;;;8.20;2.00;;;;;;;17.77;83.69;100094.65;177691;1259;59877;-86
2023/06/28 09:21:39;;;;;;;3.60;2.80;;;;;;;17.83;80.32;100091.10;177388;1256;46452;-86
2023/06/28 09:25:41;;;;;;;6.10;2.80;;;;;;;18.05;81.02;100095.91;177694;1257;46160;-85
2023/06/28 09:29:43;;;;;;;6.90;2.30;;;;;;;18.26;80.12;100089.89;177432;1260;45872;-86
2023/06/28 09:33:53;;;;;;;6.00;1.50;;;;;;;18.40;80.28;100084.30;177328;1256;46083;-85
2023/06/28 09:38:04;;;;;;;5.10;1.20;;;;;;;18.33;76.37;100083.37;177764;1257;58264;-86
2023/06/28 09:42:06;;;;;;;2.10;1.80;;;;;;;18.30;77.65;100084.60;178411;1256;45991;-86
2023/06/28 09:46:16;;;;;;;4.00;1.40;;;;;;;18.35;77.62;100087.88;177564;1256;46123;-86
2023/06/28 09:50:18;;;;;;;4.30;2.00;;;;;;;18.34;78.19;100089.54;178309;1260;45923;-84
2023/06/28 09:54:20;;;;;;;4.40;2.00;;;;;;;18.16;78.74;100087.39;177606;1257;47436;-85
2023/06/28 09:58:22;;;;;;;7.20;1.40;;;;;;;18.01;76.74;100092.45;177890;1257;59665;-86
2023/06/28 10:02:27;;;;;;;6.80;2.70;;;;;;;17.87;76.24;100094.84;178446;1256;46017;-86
2023/06/28 10:06:33;;;;;;;8.20;4.90;;;;;;;17.87;77.31;100094.34;177736;1256;45244;-85
2023/06/28 10:10:37;;;;;;;11.50;6.10;;;;;;;17.89;78.37;100093.96;177922;1257;46134;-86
2023/06/28 10:14:44;;;;;;;13.70;8.10;;;;;;;17.89;78.34;100097.94;177488;1259;46000;-86
2023/06/28 10:18:46;;;;;;;4.10;2.20;;;;;;;17.92;78.33;100099.69;177718;1256;58079;-85
2023/06/28 10:22:48;;;;;;;4.50;1.70;;;;;;;17.86;78.57;100099.09;177809;1257;46127;-86
2023/06/28 10:26:51;;;;;;;4.40;1.50;;;;;;;17.79;78.12;100109.27;177213;1259;44618;-85
2023/06/28 10:30:53;;;;;;;9.70;3.90;;;;;;;17.80;77.69;100109.66;177316;1256;46112;-86
2023/06/28 10:34:58;;;;;;;4.10;1.90;;;;;;;17.83;77.30;100105.57;177342;1256;46128;-86
2023/06/28 10:39:00;;;;;;;4.70;1.80;;;;;;;17.86;79.08;100115.64;177581;1256;59485;-86
2023/06/28 10:43:02;;;;;;;4.00;2.20;;;;;;;17.89;80.85;100125.17;178073;1256;46098;-86
2023/06/28 10:47:12;;;;;;;2.40;1.70;;;;;;;17.84;80.71;100119.08;178049;1260;46054;-86
2023/06/28 10:51:21;;;;;;;3.30;1.50;;;;;;;17.64;81.71;100107.23;177587;1260;46078;-86
2023/06/28 10:56:06;;;;;;;8.20;4.90;;;;;;;17.54;82.56;100110.24;177297;1260;46042;-87
2023/06/28 11:00:42;;;;;;;21.80;13.80;;;;;;;17.73;84.48;100118.00;177599;1260;59313;-87
2023/06/28 11:04:51;;;;;;;12.70;10.00;;;;;;;17.90;83.16;100115.92;177754;1258;46211;-87
2023/06/28 11:09:09;;;;;;;9.00;5.80;;;;;;;17.99;80.90;100117.58;177555;1259;45984;-87
2023/06/28 11:13:13;;;;;;;6.90;3.00;;;;;;;17.98;79.23;100123.81;177403;1259;44204;-89
2023/06/28 11:17:15;;;;;;;8.70;3.30;;;;;;;17.95;79.72;100124.53;177474;1259;46089;-88
2023/06/28 11:21:26;;;;;;;11.40;3.50;;;;;;;18.06;80.70;100125.42;177707;1258;59552;-88
2023/06/28 11:25:29;;;;;;;2.50;1.90;;;;;;;18.17;80.75;100128.23;177707;1261;45994;-88
2023/06/28 11:29:58;;;;;;;4.50;2.40;;;;;;;18.11;79.42;100126.43;177598;1259;46455;-87
2023/06/28 11:34:01;;;;;;;4.90;2.50;;;;;;;18.11;80.36;100129.50;178070;1262;46096;-88
2023/06/28 11:38:05;;;;;;;8.10;2.40;;;;;;;18.07;82.29;100131.54;177622;1259;46112;-89
2023/06/28 11:42:13;;;;;;;2.60;1.80;;;;;;;18.06;81.18;100136.19;177316;1259;58211;-88
2023/06/28 11:46:19;;;;;;;10.50;3.30;;;;;;;18.14;81.17;100130.79;178471;1259;46115;-88
2023/06/28 11:50:22;;;;;;;2.60;2.10;;;;;;;18.25;80.93;100123.17;177614;1262;46208;-89
2023/06/28 11:54:24;;;;;;;4.50;1.80;;;;;;;18.47;82.83;100119.59;177355;1260;46100;-88
2023/06/28 11:58:30;;;;;;;2.90;1.80;;;;;;;18.63;81.31;100118.94;177476;1260;46047;-89
2023/06/28 12:02:46;;;;;;;3.60;2.40;;;;;;;18.61;79.38;100113.02;177884;1259;59259;-89
2023/06/28 12:06:49;;;;;;;9.60;2.70;;;;;;;18.85;79.70;100117.11;177628;1259;46539;-89
2023/06/28 12:10:52;;;;;;;5.80;1.60;;;;;;;19.18;78.90;100108.65;177472;1259;46075;-88
2023/06/28 12:14:55;;;;;;;2.20;1.50;;;;;;;19.33;78.33;100111.67;177726;1258;46110;-87
2023/06/28 12:19:03;;;;;;;3.30;2.00;;;;;;;19.41;79.22;100109.66;177526;1257;44597;-88
2023/06/28 12:23:13;;;;;;;4.30;1.90;;;;;;;19.83;80.87;100106.16;177652;1260;59400;-88
2023/06/28 12:27:17;;;;;;;5.40;2.30;;;;;;;20.17;77.28;100103.09;177634;1259;46139;-88
2023/06/28 12:31:21;;;;;;;1.70;1.60;;;;;;;20.27;76.30;100104.10;178091;1258;44008;-88
2023/06/28 12:35:25;;;;;;;2.50;2.00;;;;;;;20.43;76.07;100106.48;177633;1259;45947;-88
2023/06/28 12:39:32;;;;;;;3.40;1.80;;;;;;;20.55;75.35;100104.09;177946;1260;46000;-88
2023/06/28 12:43:35;;;;;;;4.10;1.50;;;;;;;20.76;74.51;100102.54;177866;1259;62114;-87
2023/06/28 12:47:38;;;;;;;6.40;3.50;;;;;;;20.97;74.23;100100.86;180049;1260;88347;-61
2023/06/28 12:51:41;;;;;;;8.30;2.50;;;;;;;21.33;71.84;100100.79;180253;1259;43792;-61
2023/06/28 13:01:03;;;;;;;5.60;2.20;;;;;;;21.44;71.10;100099.84;180300;1259;43699;-63
2023/06/28 13:05:06;;;;;;;7.00;2.40;;;;;;;21.29;73.28;100107.48;180415;1257;58749;-61
2023/06/28 13:09:08;;;;;;;4.60;1.90;;;;;;;21.39;72.55;100104.30;180250;1259;45917;-60
2023/06/28 13:13:10;;;;;;;4.90;2.40;;;;;;;21.35;72.11;100098.14;180248;1258;46066;-59
2023/06/28 13:17:42;;;;;;;4.40;1.60;;;;;;;21.25;70.84;100100.41;180695;1261;43939;-61
2023/06/28 13:21:46;;;;;;;2.60;1.40;;;;;;;21.06;74.16;100108.40;180802;1259;44700;-63
2023/06/28 13:25:54;;;;;;;3.10;2.20;;;;;;;20.99;74.04;100100.35;180623;1259;58492;-62
2023/06/28 13:29:56;;;;;;;3.70;1.80;;;;;;;20.92;74.92;100105.53;180224;1259;44989;-62
2023/06/28 13:33:59;;;;;;;5.50;1.90;;;;;;;20.92;75.04;100099.71;180158;1259;45990;-61
2023/06/28 13:38:05;;;;;;;5.10;2.50;;;;;;;20.74;74.55;100093.88;180018;1260;46026;-62
2023/06/28 13:42:07;;;;;;;;;;;;;;;20.58;73.53;100092.52;180271;1259;43826;-61
2023/06/28 13:46:15;;;;;;;11.80;2.90;;;;;;;20.52;73.51;100096.54;180130;1259;59996;-61
2023/06/28 13:50:17;;;;;;;5.10;2.20;;;;;;;20.41;73.19;100082.95;180194;1259;44833;-62
2023/06/28 13:54:26;;;;;;;4.40;1.40;;;;;;;20.36;72.90;100088.48;180161;1258;45550;-61
2023/06/28 13:58:28;;;;;;;10.80;2.50;;;;;;;20.32;74.51;100088.40;180331;1260;46028;-61
2023/06/28 14:02:31;;;;;;;2.60;2.00;;;;;;;20.42;74.72;100088.02;180237;1260;43909;-61
2023/06/28 14:06:33;;;;;;;5.10;1.80;;;;;;;20.46;73.64;100091.84;180029;1262;59992;-61
2023/06/28 14:11:06;;;;;;;1.70;1.60;;;;;;;20.50;73.41;100090.09;180045;1262;44117;-64
2023/06/28 14:15:09;;;;;;;1.80;1.50;;;;;;;20.49;73.55;100095.52;179901;1259;46125;-62
2023/06/28 14:19:11;;;;;;;6.30;2.30;;;;;;;20.46;74.00;100099.98;180011;1258;43925;-63
2023/06/28 14:23:13;;;;;;;3.00;1.60;;;;;;;20.37;73.13;100095.29;180086;1259;43789;-60
2023/06/28 14:27:15;;;;;;;4.90;2.70;;;;;;;20.29;74.04;100093.86;180184;1260;59804;-63
2023/06/28 14:31:17;;;;;;;3.90;1.70;;;;;;;20.29;75.28;100094.86;180733;1259;43596;-63
2023/06/28 14:35:22;;;;;;;12.40;3.50;;;;;;;20.25;74.71;100093.38;180836;1256;43704;-61
2023/06/28 14:39:24;;;;;;;9.50;2.50;;;;;;;20.21;75.02;100089.36;180802;1259;46385;-63
2023/06/28 14:43:54;;;;;;;7.10;2.50;;;;;;;20.23;75.41;100090.27;180289;1259;46094;-61
2023/06/28 14:47:56;;;;;;;6.20;3.10;;;;;;;20.24;76.04;100085.76;179991;1260;59477;-61
2023/06/28 14:51:59;;;;;;;3.00;2.70;;;;;;;20.25;78.02;100087.47;179955;1260;45878;-62
2023/06/28 14:56:01;;;;;;;5.90;2.90;;;;;;;20.27;77.69;100086.70;180053;1260;44871;-62
2023/06/28 15:00:04;;;;;;;4.30;2.70;;;;;;;20.28;77.03;100087.12;180066;1259;46044;-62
2023/06/28 15:04:07;;;;;;;4.40;2.20;;;;;;;20.34;77.78;100093.73;180067;1257;45001;-62
2023/06/28 15:08:09;;;;;;;5.00;2.40;;;;;;;20.37;76.78;100092.84;180154;1260;58291;-63
2023/06/28 15:12:12;;;;;;;5.60;2.70;;;;;;;20.42;77.54;100096.33;179947;1259;46313;-61
2023/06/28 15:16:16;;;;;;;3.50;2.00;;;;;;;20.41;76.81;100097.58;180007;1260;45991;-62
2023/06/28 15:20:19;;;;;;;8.80;2.80;;;;;;;20.31;75.92;100093.59;180163;1257;44694;-62
2023/06/28 15:24:44;;;;;;;4.00;2.60;;;;;;;20.24;76.76;100090.24;180204;1258;43679;-63
2023/06/28 15:28:47;;;;;;;3.90;2.60;;;;;;;20.26;77.64;100090.06;180031;1260;58318;-62
2023/06/28 15:33:16;;;;;;;6.20;3.60;;;;;;;20.26;78.19;100090.55;180062;1259;46000;-61
2023/06/28 15:37:19;;;;;;;2.80;1.90;;;;;;;20.33;78.20;100086.75;180160;1259;43774;-61
2023/06/28 15:47:49;;;;;;;2.60;2.40;;;;;;;20.55;76.63;100083.92;180136;1259;45960;-62
2023/06/28 15:51:51;;;;;;;83.90;24.40;;;;;;;20.58;77.01;100080.41;180239;1258;59724;-59
2023/06/28 15:55:56;;;;;;;17.40;6.90;;;;;;;20.59;77.53;100079.88;180318;1259;46002;-59
2023/06/28 15:59:58;;;;;;;9.60;3.80;;;;;;;20.57;76.19;100082.69;180361;1257;45861;-59
2023/06/28 16:04:03;;;;;;;7.40;2.30;;;;;;;20.61;75.43;100079.55;180434;1256;43608;-58
2023/06/28 16:08:07;;;;;;;3.80;3.20;;;;;;;20.61;74.96;100080.64;180136;1258;44162;-59
2023/06/28 16:12:11;;;;;;;5.40;2.00;;;;;;;20.54;74.92;100083.04;180235;1259;58771;-58
2023/06/28 16:16:13;;;;;;;4.90;2.10;;;;;;;20.46;76.49;100083.36;180161;1259;46232;-59
2023/06/28 16:20:15;;;;;;;13.30;4.30;;;;;;;20.49;77.14;100085.95;180294;1258;45142;-59
2023/06/28 16:24:19;;;;;;;9.50;3.80;;;;;;;20.40;78.28;100086.30;180315;1256;43700;-59
2023/06/28 16:28:22;;;;;;;4.80;1.70;;;;;;;20.33;79.57;100088.70;180367;1259;46048;-60
2023/06/28 16:32:51;;;;;;;17.40;4.90;;;;;;;20.35;79.73;100086.73;180664;1257;60166;-59
2023/06/28 16:36:53;;;;;;;2.60;1.10;;;;;;;20.35;78.98;100086.55;180689;1259;45138;-58
2023/06/28 16:40:56;;;;;;;3.20;2.40;;;;;;;20.31;77.69;100090.81;180344;1259;43618;-59
2023/06/28 16:45:00;;;;;;;7.70;3.30;;;;;;;20.35;77.62;100093.78;180326;1258;44077;-59
2023/06/28 16:49:54;;;;;;;11.60;3.50;;;;;;;20.35;77.70;100095.91;180380;1258;46014;-59
2023/06/28 16:53:57;;;;;;;3.50;2.80;;;;;;;20.28;78.17;100101.80;180205;1260;60664;-59
2023/06/28 16:58:03;;;;;;;2.90;1.70;;;;;;;20.29;78.66;100106.95;180261;1257;44449;-60
2023/06/28 17:02:05;;;;;;;9.10;3.50;;;;;;;20.24;78.84;100105.57;180359;1259;43563;-59
2023/06/28 17:06:11;;;;;;;5.90;2.40;;;;;;;20.20;78.72;100110.61;180454;1258;44965;-59
2023/06/28 17:10:13;;;;;;;4.00;2.10;;;;;;;20.14;79.84;100114.41;180489;1259;43523;-60
2023/06/28 17:14:16;;;;;;;5.40;2.30;;;;;;;20.09;79.18;100118.46;180496;1259;58749;-60
2023/06/28 17:18:17;;;;;;;4.90;1.80;;;;;;;20.01;77.50;100123.46;180417;1260;46117;-59
2023/06/28 17:22:19;;;;;;;5.30;1.70;;;;;;;20.03;77.20;100122.23;180376;1259;44364;-58
2023/06/28 17:26:23;;;;;;;6.60;3.20;;;;;;;20.03;76.46;100114.52;180557;1258;45879;-57
2023/06/28 17:30:26;;;;;;;5.60;1.90;;;;;;;20.06;77.23;100120.98;180346;1259;44744;-58
2023/06/28 17:34:28;;;;;;;5.90;2.90;;;;;;;20.01;78.24;100124.30;180361;1257;58742;-58
2023/06/28 17:38:30;;;;;;;10.50;5.20;;;;;;;19.97;79.84;100124.92;180382;1258;43604;-57
2023/06/28 17:42:32;;;;;;;2.60;1.70;;;;;;;19.95;80.28;100133.16;180248;1258;43764;-58
2023/06/28 17:46:36;;;;;;;2.50;1.70;;;;;;;19.94;81.54;100145.36;180413;1259;45966;-57
2023/06/28 17:50:38;;;;;;;2.30;1.90;;;;;;;19.83;83.13;100140.86;180381;1258;45962;-57
2023/06/28 17:55:07;;;;;;;4.80;2.60;;;;;;;19.77;85.31;100130.79;180437;1257;58740;-58
2023/06/28 17:59:09;;;;;;;3.00;2.20;;;;;;;19.65;85.20;100134.64;180514;1257;46048;-57
2023/06/28 18:03:11;;;;;;;3.50;2.40;;;;;;;19.59;86.09;100138.05;180663;1259;44593;-57
2023/06/28 18:07:14;;;;;;;5.80;2.70;;;;;;;19.55;86.18;100138.95;180506;1257;44847;-58
2023/06/28 18:11:20;;;;;;;3.30;2.00;;;;;;;19.53;85.80;100145.73;180504;1257;43749;-58
2023/06/28 18:15:47;;;;;;;3.20;2.20;;;;;;;19.53;86.46;100142.17;181069;1259;57823;-57
2023/06/28 18:20:02;;;;;;;3.70;2.00;;;;;;;19.48;87.52;100141.05;179906;1265;87064;-57
2023/06/28 18:24:05;;;;;;;3.00;2.10;;;;;;;19.38;88.95;100144.52;179988;1264;45918;-57
2023/06/28 18:28:11;;;;;;;3.40;2.30;;;;;;;19.33;89.27;100148.52;180032;1264;46091;-57
2023/06/28 18:32:14;;;;;;;8.10;2.90;;;;;;;19.33;89.07;100153.36;179971;1264;45969;-58
2023/06/28 18:36:24;;;;;;;6.60;2.30;;;;;;;19.32;89.96;100156.98;179758;1263;58193;-60
2023/06/28 18:40:27;;;;;;;6.90;2.40;;;;;;;19.32;90.25;100161.42;180490;1265;44607;-88
2023/06/28 18:44:32;;;;;;;5.60;3.20;;;;;;;19.40;90.30;100161.33;180501;1265;44985;-87
2023/06/28 18:48:34;;;;;;;4.70;2.70;;;;;;;19.37;91.01;100171.27;180173;1267;44874;-88
2023/06/28 18:52:36;;;;;;;4.70;2.10;;;;;;;19.41;90.71;100170.77;179079;1266;45995;-89